sensor_id;sensor_type;location;lat;lon;timestamp;pressure;altitude;pressure_sealevel;temperature;humidity
21401;BME280;18038;50.166;18.908;2024-01-15T00:02:57;96208.13;;;-0.91;81.42
21401;BME280;18038;50.166;18.908;2024-01-15T00:06:05;96194.88;;;-0.89;81.51
21401;BME280;18038;50.166;18.908;2024-01-15T00:09:14;96194.88;;;-0.89;81.35
21401;BME280;18038;50.166;18.908;2024-01-15T00:12:21;96182.94;;;-0.92;81.47
21401;BME280;18038;50.166;18.908;2024-01-15T00:15:31;96170.88;;;-0.93;81.27
21401;BME280;18038;50.166;18.908;2024-01-15T00:18:39;96166.47;;;-0.92;81.40
21401;BME280;18038;50.166;18.908;2024-01-15T00:21:47;96158.47;;;-0.91;81.17
21401;BME280;18038;50.166;18.908;2024-01-15T00:24:54;96150.63;;;-0.91;81.25
21401;BME280;18038;50.166;18.908;2024-01-15T00:28:05;96159.44;;;-0.92;81.16
21401;BME280;18038;50.166;18.908;2024-01-15T00:31:16;96166.00;;;-0.88;81.36
21401;BME280;18038;50.166;18.908;2024-01-15T00:34:24;96169.41;;;-0.87;81.10
21401;BME280;18038;50.166;18.908;2024-01-15T00:37:32;96166.31;;;-0.91;81.08
21401;BME280;18038;50.166;18.908;2024-01-15T00:40:40;96159.09;;;-0.97;81.02
21401;BME280;18038;50.166;18.908;2024-01-15T00:43:50;96157.47;;;-0.98;81.49
21401;BME280;18038;50.166;18.908;2024-01-15T00:47:01;96159.44;;;-0.92;81.71
21401;BME280;18038;50.166;18.908;2024-01-15T00:50:09;96147.50;;;-0.94;82.00
21401;BME280;18038;50.166;18.908;2024-01-15T00:53:17;96154.66;;;-0.96;81.89
21401;BME280;18038;50.166;18.908;2024-01-15T00:56:26;96149.28;;;-0.95;81.96
21401;BME280;18038;50.166;18.908;2024-01-15T00:59:34;96138.63;;;-1.10;82.28
21401;BME280;18038;50.166;18.908;2024-01-15T01:06:28;96128.03;;;-1.00;82.07
21401;BME280;18038;50.166;18.908;2024-01-15T01:09:37;96131.16;;;-0.96;82.09
21401;BME280;18038;50.166;18.908;2024-01-15T01:12:45;96121.34;;;-0.94;82.15
21401;BME280;18038;50.166;18.908;2024-01-15T01:15:52;96118.41;;;-1.00;81.60
21401;BME280;18038;50.166;18.908;2024-01-15T01:19:01;96122.81;;;-1.00;82.18
21401;BME280;18038;50.166;18.908;2024-01-15T01:22:11;96113.00;;;-1.06;81.87
21401;BME280;18038;50.166;18.908;2024-01-15T01:25:19;96102.69;;;-1.08;82.03
21401;BME280;18038;50.166;18.908;2024-01-15T01:28:28;96096.16;;;-1.12;81.94
21401;BME280;18038;50.166;18.908;2024-01-15T01:31:36;96096.31;;;-1.13;82.03
21401;BME280;18038;50.166;18.908;2024-01-15T01:34:49;96075.75;;;-1.08;82.00
21401;BME280;18038;50.166;18.908;2024-01-15T01:37:59;96083.44;;;-1.07;81.44
21401;BME280;18038;50.166;18.908;2024-01-15T01:41:07;96075.25;;;-1.12;81.33
21401;BME280;18038;50.166;18.908;2024-01-15T01:44:15;96076.88;;;-1.11;81.02
21401;BME280;18038;50.166;18.908;2024-01-15T01:47:23;96074.41;;;-1.12;80.74
21401;BME280;18038;50.166;18.908;2024-01-15T01:50:32;96061.88;;;-1.09;80.22
21401;BME280;18038;50.166;18.908;2024-01-15T01:53:44;96056.00;;;-1.11;80.16
21401;BME280;18038;50.166;18.908;2024-01-15T01:56:53;96045.19;;;-1.16;79.90
21401;BME280;18038;50.166;18.908;2024-01-15T02:00:02;96054.03;;;-1.17;79.78
21401;BME280;18038;50.166;18.908;2024-01-15T02:03:17;96025.88;;;-1.31;79.69
21401;BME280;18038;50.166;18.908;2024-01-15T02:06:25;96031.47;;;-1.18;79.28
21401;BME280;18038;50.166;18.908;2024-01-15T02:09:36;96043.72;;;-1.18;79.44
21401;BME280;18038;50.166;18.908;2024-01-15T02:12:43;96041.28;;;-1.20;79.44
21401;BME280;18038;50.166;18.908;2024-01-15T02:15:53;96031.63;;;-1.19;78.58
21401;BME280;18038;50.166;18.908;2024-01-15T02:19:01;96035.88;;;-1.18;78.53
21401;BME280;18038;50.166;18.908;2024-01-15T02:22:09;96026.25;;;-1.18;78.49
21401;BME280;18038;50.166;18.908;2024-01-15T02:25:20;96021.34;;;-1.21;78.21
21401;BME280;18038;50.166;18.908;2024-01-15T02:28:28;96019.72;;;-1.22;78.30
21401;BME280;18038;50.166;18.908;2024-01-15T02:31:36;95995.53;;;-1.24;78.36
21401;BME280;18038;50.166;18.908;2024-01-15T02:34:44;96004.19;;;-1.15;77.66
21401;BME280;18038;50.166;18.908;2024-01-15T02:37:52;95993.59;;;-1.14;77.79
21401;BME280;18038;50.166;18.908;2024-01-15T02:41:02;95991.47;;;-1.18;77.80
21401;BME280;18038;50.166;18.908;2024-01-15T02:44:11;95986.41;;;-1.20;77.72
21401;BME280;18038;50.166;18.908;2024-01-15T02:47:19;95976.59;;;-1.18;77.58
21401;BME280;18038;50.166;18.908;2024-01-15T02:50:27;95972.84;;;-1.15;77.60
21401;BME280;18038;50.166;18.908;2024-01-15T02:53:36;95970.09;;;-1.14;77.68
21401;BME280;18038;50.166;18.908;2024-01-15T02:56:47;95953.91;;;-1.17;77.47
21401;BME280;18038;50.166;18.908;2024-01-15T02:59:54;95961.44;;;-1.23;77.67
21401;BME280;18038;50.166;18.908;2024-01-15T03:03:02;95954.72;;;-1.25;77.56
21401;BME280;18038;50.166;18.908;2024-01-15T03:06:10;95947.53;;;-1.23;77.46
21401;BME280;18038;50.166;18.908;2024-01-15T03:09:18;95953.59;;;-1.23;77.46
21401;BME280;18038;50.166;18.908;2024-01-15T03:12:28;95955.56;;;-1.16;77.24
21401;BME280;18038;50.166;18.908;2024-01-15T03:15:36;95946.56;;;-1.14;77.36
21401;BME280;18038;50.166;18.908;2024-01-15T03:18:44;95930.09;;;-1.14;76.92
21401;BME280;18038;50.166;18.908;2024-01-15T03:21:52;95928.94;;;-1.12;76.93
21401;BME280;18038;50.166;18.908;2024-01-15T03:24:59;95927.63;;;-1.16;76.97
21401;BME280;18038;50.166;18.908;2024-01-15T03:28:16;95939.53;;;-1.13;76.86
21401;BME280;18038;50.166;18.908;2024-01-15T03:31:23;95930.72;;;-1.12;76.55
21401;BME280;18038;50.166;18.908;2024-01-15T03:34:31;95910.97;;;-1.15;76.92
21401;BME280;18038;50.166;18.908;2024-01-15T03:37:38;95896.59;;;-1.19;76.67
21401;BME280;18038;50.166;18.908;2024-01-15T03:40:46;95905.25;;;-1.18;76.64
21401;BME280;18038;50.166;18.908;2024-01-15T03:43:56;95896.94;;;-1.14;76.62
21401;BME280;18038;50.166;18.908;2024-01-15T03:47:05;95886.16;;;-1.11;76.36
21401;BME280;18038;50.166;18.908;2024-01-15T03:50:12;95891.72;;;-1.14;76.53
21401;BME280;18038;50.166;18.908;2024-01-15T03:53:20;95882.72;;;-1.19;76.66
21401;BME280;18038;50.166;18.908;2024-01-15T03:56:27;95880.59;;;-1.16;76.72
21401;BME280;18038;50.166;18.908;2024-01-15T03:59:40;95885.34;;;-1.19;76.32
21401;BME280;18038;50.166;18.908;2024-01-15T04:02:48;95872.75;;;-1.16;76.35
21401;BME280;18038;50.166;18.908;2024-01-15T04:05:56;95885.16;;;-1.18;76.46
21401;BME280;18038;50.166;18.908;2024-01-15T04:09:03;95883.22;;;-1.16;76.47
21401;BME280;18038;50.166;18.908;2024-01-15T04:12:11;95880.59;;;-1.16;76.37
21401;BME280;18038;50.166;18.908;2024-01-15T04:15:29;95893.00;;;-1.18;76.34
21401;BME280;18038;50.166;18.908;2024-01-15T04:18:40;95900.50;;;-1.15;76.23
21401;BME280;18038;50.166;18.908;2024-01-15T04:21:47;95908.19;;;-1.13;76.26
21401;BME280;18038;50.166;18.908;2024-01-15T04:24:58;95906.06;;;-1.10;76.22
21401;BME280;18038;50.166;18.908;2024-01-15T04:28:06;95902.31;;;-1.15;76.49
21401;BME280;18038;50.166;18.908;2024-01-15T04:31:23;95902.31;;;-1.15;76.24
21401;BME280;18038;50.166;18.908;2024-01-15T04:34:31;95904.13;;;-1.16;76.47
21401;BME280;18038;50.166;18.908;2024-01-15T04:37:39;95903.63;;;-1.19;76.50
21401;BME280;18038;50.166;18.908;2024-01-15T04:41:03;95885.16;;;-1.26;76.71
21401;BME280;18038;50.166;18.908;2024-01-15T04:44:14;95884.69;;;-1.30;76.73
21401;BME280;18038;50.166;18.908;2024-01-15T04:47:24;95881.56;;;-1.33;76.82
21401;BME280;18038;50.166;18.908;2024-01-15T04:50:39;95879.44;;;-1.38;77.26
21401;BME280;18038;50.166;18.908;2024-01-15T04:53:46;95878.63;;;-1.38;77.21
21401;BME280;18038;50.166;18.908;2024-01-15T04:56:54;95882.53;;;-1.34;77.33
21401;BME280;18038;50.166;18.908;2024-01-15T05:00:02;95896.59;;;-1.35;77.61
21401;BME280;18038;50.166;18.908;2024-01-15T05:03:13;95896.59;;;-1.35;77.38
21401;BME280;18038;50.166;18.908;2024-01-15T05:06:21;95910.63;;;-1.36;77.55
21401;BME280;18038;50.166;18.908;2024-01-15T05:09:29;95892.34;;;-1.36;77.57
21401;BME280;18038;50.166;18.908;2024-01-15T05:12:42;95901.63;;;-1.34;77.45
21401;BME280;18038;50.166;18.908;2024-01-15T05:15:50;95888.09;;;-1.37;77.31
21401;BME280;18038;50.166;18.908;2024-01-15T05:19:01;95885.81;;;-1.40;77.38
21401;BME280;18038;50.166;18.908;2024-01-15T05:22:11;95887.75;;;-1.43;77.40
21401;BME280;18038;50.166;18.908;2024-01-15T05:25:19;95872.09;;;-1.43;77.78
21401;BME280;18038;50.166;18.908;2024-01-15T05:28:27;95880.41;;;-1.47;77.87
21401;BME280;18038;50.166;18.908;2024-01-15T05:31:40;95882.88;;;-1.46;77.88
21401;BME280;18038;50.166;18.908;2024-01-15T05:34:51;95877.97;;;-1.49;77.82
21401;BME280;18038;50.166;18.908;2024-01-15T05:37:59;95870.47;;;-1.52;77.85
21401;BME280;18038;50.166;18.908;2024-01-15T05:41:07;95871.09;;;-1.50;77.67
21401;BME280;18038;50.166;18.908;2024-01-15T05:44:14;95860.50;;;-1.48;77.76
21401;BME280;18038;50.166;18.908;2024-01-15T05:47:22;95867.53;;;-1.49;77.64
21401;BME280;18038;50.166;18.908;2024-01-15T05:50:32;95858.69;;;-1.48;77.42
21401;BME280;18038;50.166;18.908;2024-01-15T05:53:40;95861.97;;;-1.46;77.66
21401;BME280;18038;50.166;18.908;2024-01-15T05:56:52;95869.47;;;-1.43;77.66
21401;BME280;18038;50.166;18.908;2024-01-15T06:00:00;95865.88;;;-1.42;77.36
21401;BME280;18038;50.166;18.908;2024-01-15T06:03:09;95885.81;;;-1.40;77.08
21401;BME280;18038;50.166;18.908;2024-01-15T06:06:32;95879.59;;;-1.48;77.27
21401;BME280;18038;50.166;18.908;2024-01-15T06:09:49;95872.75;;;-1.49;77.31
21401;BME280;18038;50.166;18.908;2024-01-15T06:13:01;95881.72;;;-1.43;77.19
21401;BME280;18038;50.166;18.908;2024-01-15T06:16:14;95865.72;;;-1.56;77.30
21401;BME280;18038;50.166;18.908;2024-01-15T06:19:24;95874.84;;;-1.52;77.52
21401;BME280;18038;50.166;18.908;2024-01-15T06:22:34;95871.28;;;-1.51;77.45
21401;BME280;18038;50.166;18.908;2024-01-15T06:25:43;95877.97;;;-1.49;77.56
21401;BME280;18038;50.166;18.908;2024-01-15T06:28:51;95875.69;;;-1.52;77.73
21401;BME280;18038;50.166;18.908;2024-01-15T06:31:59;95869.81;;;-1.54;77.53
21401;BME280;18038;50.166;18.908;2024-01-15T06:35:07;95876.66;;;-1.53;77.64
21401;BME280;18038;50.166;18.908;2024-01-15T06:38:24;95888.09;;;-1.54;77.99
21401;BME280;18038;50.166;18.908;2024-01-15T06:41:32;95875.97;;;-1.63;78.07
21401;BME280;18038;50.166;18.908;2024-01-15T06:44:46;95864.25;;;-1.59;78.38
21401;BME280;18038;50.166;18.908;2024-01-15T06:47:53;95877.44;;;-1.60;78.31
21401;BME280;18038;50.166;18.908;2024-01-15T06:51:01;95884.63;;;-1.62;78.31
21401;BME280;18038;50.166;18.908;2024-01-15T06:54:16;95886.91;;;-1.68;78.07
21401;BME280;18038;50.166;18.908;2024-01-15T06:57:24;95893.91;;;-1.68;77.96
21401;BME280;18038;50.166;18.908;2024-01-15T07:00:32;95891.63;;;-1.63;77.93
21401;BME280;18038;50.166;18.908;2024-01-15T07:03:40;95908.28;;;-1.64;77.80
21401;BME280;18038;50.166;18.908;2024-01-15T07:06:47;95915.94;;;-1.62;77.54
21401;BME280;18038;50.166;18.908;2024-01-15T07:09:58;95922.50;;;-1.58;77.67
21401;BME280;18038;50.166;18.908;2024-01-15T07:13:06;95924.28;;;-1.59;77.44
21401;BME280;18038;50.166;18.908;2024-01-15T07:16:14;95922.97;;;-1.63;77.51
21401;BME280;18038;50.166;18.908;2024-01-15T07:19:46;95943.19;;;-1.65;77.65
21401;BME280;18038;50.166;18.908;2024-01-15T07:22:54;95935.66;;;-1.68;77.65
21401;BME280;18038;50.166;18.908;2024-01-15T07:26:04;95947.44;;;-1.64;77.33
21401;BME280;18038;50.166;18.908;2024-01-15T07:29:12;95948.13;;;-1.54;77.22
21401;BME280;18038;50.166;18.908;2024-01-15T07:32:19;95963.94;;;-1.55;77.51
21401;BME280;18038;50.166;18.908;2024-01-15T07:35:28;95971.78;;;-1.55;77.64
21401;BME280;18038;50.166;18.908;2024-01-15T07:38:35;95962.34;;;-1.48;77.10
21401;BME280;18038;50.166;18.908;2024-01-15T07:41:46;95963.16;;;-1.48;77.28
21401;BME280;18038;50.166;18.908;2024-01-15T07:44:53;95956.78;;;-1.45;76.96
21401;BME280;18038;50.166;18.908;2024-01-15T07:48:05;95964.47;;;-1.44;76.92
21401;BME280;18038;50.166;18.908;2024-01-15T07:51:15;95962.22;;;-1.38;76.68
21401;BME280;18038;50.166;18.908;2024-01-15T07:54:24;95962.34;;;-1.48;76.82
21401;BME280;18038;50.166;18.908;2024-01-15T07:57:34;95976.41;;;-1.41;76.91
21401;BME280;18038;50.166;18.908;2024-01-15T08:00:43;95975.91;;;-1.36;76.96
21401;BME280;18038;50.166;18.908;2024-01-15T08:03:50;95989.81;;;-1.36;76.84
21401;BME280;18038;50.166;18.908;2024-01-15T08:07:00;95981.44;;;-1.48;76.75
21401;BME280;18038;50.166;18.908;2024-01-15T08:10:08;95979.81;;;-1.49;77.36
21401;BME280;18038;50.166;18.908;2024-01-15T08:13:21;95978.00;;;-1.48;77.14
21401;BME280;18038;50.166;18.908;2024-01-15T08:16:31;95968.69;;;-1.51;77.50
21401;BME280;18038;50.166;18.908;2024-01-15T08:19:39;95981.91;;;-1.52;77.13
21401;BME280;18038;50.166;18.908;2024-01-15T08:22:47;95982.75;;;-1.44;77.31
21401;BME280;18038;50.166;18.908;2024-01-15T08:26:01;95977.22;;;-1.40;76.97
21401;BME280;18038;50.166;18.908;2024-01-15T08:29:22;95985.53;;;-1.37;76.97
21401;BME280;18038;50.166;18.908;2024-01-15T08:32:30;95983.56;;;-1.43;80.23
21401;BME280;18038;50.166;18.908;2024-01-15T08:35:40;95977.34;;;-1.50;83.20
21401;BME280;18038;50.166;18.908;2024-01-15T08:38:48;95969.69;;;-1.52;84.15
21401;BME280;18038;50.166;18.908;2024-01-15T08:41:55;95975.31;;;-0.98;79.99
21401;BME280;18038;50.166;18.908;2024-01-15T08:45:08;95971.34;;;-0.20;75.87
21401;BME280;18038;50.166;18.908;2024-01-15T08:48:15;95968.13;;;-0.46;73.95
21401;BME280;18038;50.166;18.908;2024-01-15T08:51:24;95963.25;;;-0.66;75.12
21401;BME280;18038;50.166;18.908;2024-01-15T08:54:31;95983.50;;;-0.84;75.35
21401;BME280;18038;50.166;18.908;2024-01-15T08:57:39;95984.16;;;-0.90;75.66
21401;BME280;18038;50.166;18.908;2024-01-15T09:00:49;95983.31;;;-0.99;76.59
21401;BME280;18038;50.166;18.908;2024-01-15T09:03:57;95986.09;;;-1.01;77.47
21401;BME280;18038;50.166;18.908;2024-01-15T09:07:05;95992.00;;;-1.07;77.39
21401;BME280;18038;50.166;18.908;2024-01-15T09:10:13;95996.22;;;-1.14;77.78
21401;BME280;18038;50.166;18.908;2024-01-15T09:13:21;95992.16;;;-1.00;78.23
21401;BME280;18038;50.166;18.908;2024-01-15T09:16:31;95994.94;;;-0.85;77.12
21401;BME280;18038;50.166;18.908;2024-01-15T09:19:39;95995.91;;;-0.78;76.67
21401;BME280;18038;50.166;18.908;2024-01-15T09:22:47;95987.25;;;-0.70;75.67
21401;BME280;18038;50.166;18.908;2024-01-15T09:25:55;95996.09;;;-0.47;74.71
21401;BME280;18038;50.166;18.908;2024-01-15T09:29:04;95997.06;;;-0.48;74.06
21401;BME280;18038;50.166;18.908;2024-01-15T09:32:14;95994.28;;;-0.30;73.04
21401;BME280;18038;50.166;18.908;2024-01-15T09:35:23;95986.00;;;0.14;71.85
21401;BME280;18038;50.166;18.908;2024-01-15T09:38:30;95988.91;;;0.27;70.17
21401;BME280;18038;50.166;18.908;2024-01-15T09:41:39;95980.38;;;0.33;69.24
21401;BME280;18038;50.166;18.908;2024-01-15T09:45:00;95967.06;;;-0.04;69.92
21401;BME280;18038;50.166;18.908;2024-01-15T09:48:13;95984.81;;;-0.39;70.77
21401;BME280;18038;50.166;18.908;2024-01-15T09:51:21;95992.66;;;-0.39;71.24
21401;BME280;18038;50.166;18.908;2024-01-15T09:54:29;95982.97;;;-0.30;71.04
21401;BME280;18038;50.166;18.908;2024-01-15T09:57:46;95979.84;;;-0.18;70.53
21401;BME280;18038;50.166;18.908;2024-01-15T10:00:56;95973.09;;;0.04;69.57
21401;BME280;18038;50.166;18.908;2024-01-15T10:04:13;95970.56;;;0.27;68.89
21401;BME280;18038;50.166;18.908;2024-01-15T10:07:25;95977.84;;;0.48;68.22
21401;BME280;18038;50.166;18.908;2024-01-15T10:10:36;95978.03;;;0.47;68.52
21401;BME280;18038;50.166;18.908;2024-01-15T10:13:46;95984.72;;;0.81;67.75
21401;BME280;18038;50.166;18.908;2024-01-15T10:16:59;95969.94;;;0.88;67.35
21401;BME280;18038;50.166;18.908;2024-01-15T10:20:11;95976.75;;;1.20;66.52
21401;BME280;18038;50.166;18.908;2024-01-15T10:23:19;95972.72;;;0.86;66.99
21401;BME280;18038;50.166;18.908;2024-01-15T10:26:28;95971.63;;;0.81;67.07
21401;BME280;18038;50.166;18.908;2024-01-15T10:29:37;95973.53;;;0.64;67.27
21401;BME280;18038;50.166;18.908;2024-01-15T10:32:57;95980.47;;;0.48;67.81
21401;BME280;18038;50.166;18.908;2024-01-15T10:36:09;95975.59;;;0.37;68.45
21401;BME280;18038;50.166;18.908;2024-01-15T10:39:31;95984.47;;;0.28;68.31
21401;BME280;18038;50.166;18.908;2024-01-15T10:42:39;95975.00;;;0.27;68.81
21401;BME280;18038;50.166;18.908;2024-01-15T10:45:51;95965.91;;;0.46;68.50
21401;BME280;18038;50.166;18.908;2024-01-15T10:48:58;95972.94;;;0.45;67.98
21401;BME280;18038;50.166;18.908;2024-01-15T10:52:10;95977.41;;;0.37;68.14
21401;BME280;18038;50.166;18.908;2024-01-15T10:55:18;95973.16;;;0.36;67.34
21401;BME280;18038;50.166;18.908;2024-01-15T10:58:31;95972.25;;;0.51;67.62
21401;BME280;18038;50.166;18.908;2024-01-15T11:01:42;95975.38;;;0.55;66.99
21401;BME280;18038;50.166;18.908;2024-01-15T11:04:51;95961.88;;;0.35;66.89
21401;BME280;18038;50.166;18.908;2024-01-15T11:08:02;95975.53;;;0.14;68.05
21401;BME280;18038;50.166;18.908;2024-01-15T11:11:12;95977.50;;;0.04;68.13
21401;BME280;18038;50.166;18.908;2024-01-15T11:14:35;95976.28;;;-0.17;68.45
21401;BME280;18038;50.166;18.908;2024-01-15T11:17:59;95961.38;;;-0.08;69.28
21401;BME280;18038;50.166;18.908;2024-01-15T11:21:25;95961.84;;;-0.04;69.07
21401;BME280;18038;50.166;18.908;2024-01-15T11:24:41;95947.81;;;-0.28;68.96
21401;BME280;18038;50.166;18.908;2024-01-15T11:27:51;95959.59;;;-0.24;69.44
21401;BME280;18038;50.166;18.908;2024-01-15T11:31:01;95962.91;;;-0.30;69.68
21401;BME280;18038;50.166;18.908;2024-01-15T11:34:10;95963.19;;;-0.33;70.16
21401;BME280;18038;50.166;18.908;2024-01-15T11:37:20;95965.38;;;-0.53;70.37
21401;BME280;18038;50.166;18.908;2024-01-15T11:40:39;95964.22;;;-0.50;71.17
21401;BME280;18038;50.166;18.908;2024-01-15T11:43:52;95963.09;;;-0.56;70.99
21401;BME280;18038;50.166;18.908;2024-01-15T11:47:01;95967.19;;;-0.62;71.34
21401;BME280;18038;50.166;18.908;2024-01-15T11:50:10;95967.16;;;-0.78;71.77
21401;BME280;18038;50.166;18.908;2024-01-15T11:53:25;95963.06;;;-0.72;72.58
21401;BME280;18038;50.166;18.908;2024-01-15T11:56:43;95954.75;;;-0.76;71.65
21401;BME280;18038;50.166;18.908;2024-01-15T11:59:50;95952.78;;;-0.74;71.93
21401;BME280;18038;50.166;18.908;2024-01-15T12:02:59;95942.50;;;-0.76;71.90
21401;BME280;18038;50.166;18.908;2024-01-15T12:06:06;95943.81;;;-0.71;71.88
21401;BME280;18038;50.166;18.908;2024-01-15T12:09:19;95940.72;;;-0.75;71.46
21401;BME280;18038;50.166;18.908;2024-01-15T12:12:39;95947.22;;;-0.63;71.73
21401;BME280;18038;50.166;18.908;2024-01-15T12:16:02;95949.84;;;-0.63;71.68
21401;BME280;18038;50.166;18.908;2024-01-15T12:19:10;95954.41;;;-0.57;71.62
21401;BME280;18038;50.166;18.908;2024-01-15T12:22:18;95945.13;;;-0.59;71.71
21401;BME280;18038;50.166;18.908;2024-01-15T12:25:26;95942.47;;;-0.67;71.33
21401;BME280;18038;50.166;18.908;2024-01-15T12:28:39;95957.69;;;-0.55;70.85
21401;BME280;18038;50.166;18.908;2024-01-15T12:31:47;95952.09;;;-0.51;70.77
21401;BME280;18038;50.166;18.908;2024-01-15T12:34:56;95955.06;;;-0.55;70.98
21401;BME280;18038;50.166;18.908;2024-01-15T12:38:12;95952.09;;;-0.51;70.70
21401;BME280;18038;50.166;18.908;2024-01-15T12:41:26;95951.16;;;-0.59;70.57
21401;BME280;18038;50.166;18.908;2024-01-15T12:44:44;95953.75;;;-0.50;70.56
21401;BME280;18038;50.166;18.908;2024-01-15T12:47:53;95953.75;;;-0.42;70.84
21401;BME280;18038;50.166;18.908;2024-01-15T12:51:05;95962.38;;;-0.34;71.59
21401;BME280;18038;50.166;18.908;2024-01-15T12:54:22;95964.03;;;-0.33;71.73
21401;BME280;18038;50.166;18.908;2024-01-15T12:57:30;95966.84;;;-0.50;71.69
21401;BME280;18038;50.166;18.908;2024-01-15T13:00:41;95968.31;;;-0.56;72.03
21401;BME280;18038;50.166;18.908;2024-01-15T13:03:55;95966.19;;;-0.52;72.09
21401;BME280;18038;50.166;18.908;2024-01-15T13:07:04;95965.19;;;-0.51;72.14
21401;BME280;18038;50.166;18.908;2024-01-15T13:10:12;95952.78;;;-0.66;72.36
21401;BME280;18038;50.166;18.908;2024-01-15T13:13:20;95949.19;;;-0.65;72.30
21401;BME280;18038;50.166;18.908;2024-01-15T13:16:30;95946.25;;;-0.70;72.83
21401;BME280;18038;50.166;18.908;2024-01-15T13:19:44;95941.00;;;-0.70;72.01
21401;BME280;18038;50.166;18.908;2024-01-15T13:22:53;95950.66;;;-0.70;72.31
21401;BME280;18038;50.166;18.908;2024-01-15T13:26:01;95944.16;;;-0.74;72.57
21401;BME280;18038;50.166;18.908;2024-01-15T13:29:09;95937.25;;;-0.67;72.35
21401;BME280;18038;50.166;18.908;2024-01-15T13:32:24;95937.44;;;-0.69;71.93
21401;BME280;18038;50.166;18.908;2024-01-15T13:35:33;95933.16;;;-0.70;71.20
21401;BME280;18038;50.166;18.908;2024-01-15T13:38:41;95931.41;;;-0.69;70.83
21401;BME280;18038;50.166;18.908;2024-01-15T13:41:48;95930.56;;;-0.70;70.74
21401;BME280;18038;50.166;18.908;2024-01-15T13:45:23;95929.94;;;-0.72;71.11
21401;BME280;18038;50.166;18.908;2024-01-15T13:48:46;95923.22;;;-0.66;70.30
21401;BME280;18038;50.166;18.908;2024-01-15T13:51:57;95931.22;;;-0.68;70.12
21401;BME280;18038;50.166;18.908;2024-01-15T13:55:05;95930.88;;;-0.65;69.81
21401;BME280;18038;50.166;18.908;2024-01-15T13:58:14;95940.69;;;-0.59;69.94
21401;BME280;18038;50.166;18.908;2024-01-15T14:01:22;95936.63;;;-0.69;69.76
21401;BME280;18038;50.166;18.908;2024-01-15T14:04:33;95937.44;;;-0.69;70.28
21401;BME280;18038;50.166;18.908;2024-01-15T14:07:51;95931.41;;;-0.69;70.26
21401;BME280;18038;50.166;18.908;2024-01-15T14:11:00;95934.63;;;-0.67;69.75
21401;BME280;18038;50.166;18.908;2024-01-15T14:14:19;95929.75;;;-0.70;70.06
21401;BME280;18038;50.166;18.908;2024-01-15T14:17:42;95926.97;;;-0.69;70.21
21401;BME280;18038;50.166;18.908;2024-01-15T14:21:04;95931.88;;;-0.66;70.08
21401;BME280;18038;50.166;18.908;2024-01-15T14:24:17;95927.31;;;-0.72;70.16
21401;BME280;18038;50.166;18.908;2024-01-15T14:27:31;95933.34;;;-0.71;69.98
21401;BME280;18038;50.166;18.908;2024-01-15T14:30:59;95927.66;;;-0.75;70.09
21401;BME280;18038;50.166;18.908;2024-01-15T14:34:09;95933.50;;;-0.73;69.98
21401;BME280;18038;50.166;18.908;2024-01-15T14:37:26;95934.63;;;-0.67;69.73
21401;BME280;18038;50.166;18.908;2024-01-15T14:40:51;95939.38;;;-0.71;69.43
21401;BME280;18038;50.166;18.908;2024-01-15T14:43:59;95951.81;;;-0.73;68.62
21401;BME280;18038;50.166;18.908;2024-01-15T14:47:07;95949.50;;;-0.68;68.84
21401;BME280;18038;50.166;18.908;2024-01-15T14:50:16;95953.28;;;-0.70;68.66
21401;BME280;18038;50.166;18.908;2024-01-15T14:53:26;95950.66;;;-0.70;68.98
21401;BME280;18038;50.166;18.908;2024-01-15T14:56:35;95952.78;;;-0.74;68.57
21401;BME280;18038;50.166;18.908;2024-01-15T14:59:42;95955.75;;;-0.77;69.02
21401;BME280;18038;50.166;18.908;2024-01-15T15:02:50;95962.25;;;-0.73;69.53
21401;BME280;18038;50.166;18.908;2024-01-15T15:05:58;95964.38;;;-0.68;69.58
21401;BME280;18038;50.166;18.908;2024-01-15T15:09:10;95956.69;;;-0.78;69.51
21401;BME280;18038;50.166;18.908;2024-01-15T15:12:27;95957.34;;;-0.68;69.94
21401;BME280;18038;50.166;18.908;2024-01-15T15:15:36;95962.78;;;-0.69;70.13
21401;BME280;18038;50.166;18.908;2024-01-15T15:18:46;95963.72;;;-0.70;70.39
21401;BME280;18038;50.166;18.908;2024-01-15T15:21:55;95960.78;;;-0.76;70.54
21401;BME280;18038;50.166;18.908;2024-01-15T15:25:06;95963.25;;;-0.82;70.18
21401;BME280;18038;50.166;18.908;2024-01-15T15:28:16;95971.75;;;-0.80;70.51
21401;BME280;18038;50.166;18.908;2024-01-15T15:31:24;95964.53;;;-0.86;70.60
21401;BME280;18038;50.166;18.908;2024-01-15T15:34:33;95971.56;;;-0.87;70.68
21401;BME280;18038;50.166;18.908;2024-01-15T15:37:40;95976.81;;;-0.87;70.40
21401;BME280;18038;50.166;18.908;2024-01-15T15:40:51;95968.47;;;-0.90;70.69
21401;BME280;18038;50.166;18.908;2024-01-15T15:43:59;95969.28;;;-0.90;70.55
21401;BME280;18038;50.166;18.908;2024-01-15T15:47:08;95977.63;;;-0.86;70.49
21401;BME280;18038;50.166;18.908;2024-01-15T15:50:37;95971.56;;;-0.87;70.63
21401;BME280;18038;50.166;18.908;2024-01-15T15:53:51;95977.13;;;-0.90;70.28
21401;BME280;18038;50.166;18.908;2024-01-15T15:57:04;95977.13;;;-0.90;70.73
21401;BME280;18038;50.166;18.908;2024-01-15T16:00:13;95971.91;;;-0.90;70.10
21401;BME280;18038;50.166;18.908;2024-01-15T16:03:21;95984.78;;;-0.88;70.12
21401;BME280;18038;50.166;18.908;2024-01-15T16:06:32;95982.03;;;-0.87;70.28
21401;BME280;18038;50.166;18.908;2024-01-15T16:09:40;95984.16;;;-0.82;70.54
21401;BME280;18038;50.166;18.908;2024-01-15T16:12:51;95986.44;;;-0.87;70.40
21401;BME280;18038;50.166;18.908;2024-01-15T16:15:58;95992.50;;;-0.87;70.64
21401;BME280;18038;50.166;18.908;2024-01-15T16:19:27;95988.25;;;-0.88;70.55
21401;BME280;18038;50.166;18.908;2024-01-15T16:22:55;95979.56;;;-0.88;70.73
21401;BME280;18038;50.166;18.908;2024-01-15T16:26:23;95978.94;;;-0.82;70.80
21401;BME280;18038;50.166;18.908;2024-01-15T16:30:01;95975.19;;;-0.88;71.00
21401;BME280;18038;50.166;18.908;2024-01-15T16:33:37;95986.13;;;-0.84;71.39
21401;BME280;18038;50.166;18.908;2024-01-15T16:36:48;95975.66;;;-0.84;71.16
21401;BME280;18038;50.166;18.908;2024-01-15T16:39:56;95985.13;;;-0.83;71.24
21401;BME280;18038;50.166;18.908;2024-01-15T16:43:07;95991.50;;;-0.86;71.41